sensor_id;sensor_type;location;lat;lon;timestamp;pressure;altitude;pressure_sealevel;temperature;humidity
83308;BME280;73223;48.584;13.460;2024-01-07T00:00:47;95910.34;;;3.99;100.00
83308;BME280;73223;48.584;13.460;2024-01-07T00:03:12;95909.69;;;3.91;100.00
83308;BME280;73223;48.584;13.460;2024-01-07T00:05:37;95913.78;;;3.98;100.00
83308;BME280;73223;48.584;13.460;2024-01-07T00:08:03;95909.50;;;3.99;100.00
83308;BME280;73223;48.584;13.460;2024-01-07T00:10:28;95914.03;;;4.29;100.00
83308;BME280;73223;48.584;13.460;2024-01-07T00:12:53;95909.06;;;3.77;100.00
83308;BME280;73223;48.584;13.460;2024-01-07T00:15:19;95915.84;;;3.81;100.00
83308;BME280;73223;48.584;13.460;2024-01-07T00:17:44;95914.88;;;3.87;100.00
83308;BME280;73223;48.584;13.460;2024-01-07T00:20:09;95918.44;;;3.79;100.00
83308;BME280;73223;48.584;13.460;2024-01-07T00:22:35;95911.31;;;4.35;100.00
83308;BME280;73223;48.584;13.460;2024-01-07T00:25:01;95919.25;;;4.25;100.00
83308;BME280;73223;48.584;13.460;2024-01-07T00:27:26;95913.75;;;4.00;100.00
83308;BME280;73223;48.584;13.460;2024-01-07T00:29:51;95910.75;;;4.21;100.00
83308;BME280;73223;48.584;13.460;2024-01-07T00:32:16;95913.25;;;4.26;100.00
83308;BME280;73223;48.584;13.460;2024-01-07T00:34:42;95919.81;;;3.96;100.00
83308;BME280;73223;48.584;13.460;2024-01-07T00:37:07;95922.63;;;3.83;100.00
83308;BME280;73223;48.584;13.460;2024-01-07T00:39:32;95918.84;;;4.03;100.00
83308;BME280;73223;48.584;13.460;2024-01-07T00:41:58;95919.09;;;3.91;100.00
83308;BME280;73223;48.584;13.460;2024-01-07T00:44:23;95929.53;;;3.80;100.00
83308;BME280;73223;48.584;13.460;2024-01-07T00:46:48;95924.56;;;3.72;100.00
83308;BME280;73223;48.584;13.460;2024-01-07T00:49:14;95916.97;;;4.11;100.00
83308;BME280;73223;48.584;13.460;2024-01-07T00:51:39;95918.53;;;4.16;100.00
83308;BME280;73223;48.584;13.460;2024-01-07T00:54:04;95916.72;;;3.80;100.00
83308;BME280;73223;48.584;13.460;2024-01-07T00:56:29;95920.75;;;4.33;100.00
83308;BME280;73223;48.584;13.460;2024-01-07T00:58:55;95928.69;;;4.23;100.00
83308;BME280;73223;48.584;13.460;2024-01-07T01:01:20;95921.84;;;4.23;100.00
83308;BME280;73223;48.584;13.460;2024-01-07T01:03:45;95920.38;;;4.50;100.00
83308;BME280;73223;48.584;13.460;2024-01-07T01:06:11;95927.06;;;4.59;100.00
83308;BME280;73223;48.584;13.460;2024-01-07T01:08:36;95932.81;;;4.30;100.00
83308;BME280;73223;48.584;13.460;2024-01-07T01:11:02;95922.59;;;4.28;100.00
83308;BME280;73223;48.584;13.460;2024-01-07T01:13:27;95930.13;;;4.36;100.00
83308;BME280;73223;48.584;13.460;2024-01-07T01:15:52;95932.06;;;4.25;100.00
83308;BME280;73223;48.584;13.460;2024-01-07T01:18:18;95930.31;;;3.83;100.00
83308;BME280;73223;48.584;13.460;2024-01-07T01:20:43;95938.72;;;4.33;100.00
83308;BME280;73223;48.584;13.460;2024-01-07T01:23:08;95929.09;;;4.44;100.00
83308;BME280;73223;48.584;13.460;2024-01-07T01:25:34;95932.16;;;4.60;100.00
83308;BME280;73223;48.584;13.460;2024-01-07T01:28:01;95931.91;;;4.71;100.00
83308;BME280;73223;48.584;13.460;2024-01-07T01:30:26;95935.22;;;4.76;100.00
83308;BME280;73223;48.584;13.460;2024-01-07T01:32:52;95941.69;;;4.53;100.00
83308;BME280;73223;48.584;13.460;2024-01-07T01:35:17;95936.41;;;4.61;100.00
83308;BME280;73223;48.584;13.460;2024-01-07T01:37:43;95935.47;;;4.65;100.00
83308;BME280;73223;48.584;13.460;2024-01-07T01:40:08;95937.91;;;4.31;100.00
83308;BME280;73223;48.584;13.460;2024-01-07T01:42:34;95935.88;;;4.84;100.00
83308;BME280;73223;48.584;13.460;2024-01-07T01:44:59;95930.72;;;4.85;100.00
83308;BME280;73223;48.584;13.460;2024-01-07T01:47:27;95939.13;;;4.92;100.00
83308;BME280;73223;48.584;13.460;2024-01-07T01:49:52;95934.72;;;4.99;100.00
83308;BME280;73223;48.584;13.460;2024-01-07T01:52:17;95938.81;;;5.04;100.00
83308;BME280;73223;48.584;13.460;2024-01-07T01:54:43;95936.50;;;4.95;100.00
83308;BME280;73223;48.584;13.460;2024-01-07T01:57:15;95937.91;;;5.07;100.00
83308;BME280;73223;48.584;13.460;2024-01-07T01:59:41;95934.56;;;5.03;100.00
83308;BME280;73223;48.584;13.460;2024-01-07T02:02:07;95939.22;;;4.87;100.00
83308;BME280;73223;48.584;13.460;2024-01-07T02:04:33;95935.69;;;4.93;100.00
83308;BME280;73223;48.584;13.460;2024-01-07T02:06:58;95934.75;;;4.97;100.00
83308;BME280;73223;48.584;13.460;2024-01-07T02:09:23;95933.88;;;4.97;100.00
83308;BME280;73223;48.584;13.460;2024-01-07T02:12:04;95925.97;;;4.69;100.00
83308;BME280;73223;48.584;13.460;2024-01-07T02:14:30;95924.44;;;4.99;100.00
83308;BME280;73223;48.584;13.460;2024-01-07T02:16:55;95927.22;;;4.88;100.00
83308;BME280;73223;48.584;13.460;2024-01-07T02:19:21;95926.38;;;4.87;100.00
83308;BME280;73223;48.584;13.460;2024-01-07T02:21:47;95923.94;;;4.83;100.00
83308;BME280;73223;48.584;13.460;2024-01-07T02:24:16;95922.34;;;4.77;100.00
83308;BME280;73223;48.584;13.460;2024-01-07T02:26:41;95930.00;;;4.80;100.00
83308;BME280;73223;48.584;13.460;2024-01-07T02:29:06;95929.56;;;4.62;100.00
83308;BME280;73223;48.584;13.460;2024-01-07T02:31:31;95927.72;;;4.67;100.00
83308;BME280;73223;48.584;13.460;2024-01-07T02:33:57;95923.06;;;4.47;100.00
83308;BME280;73223;48.584;13.460;2024-01-07T02:36:22;95918.88;;;4.41;100.00
83308;BME280;73223;48.584;13.460;2024-01-07T02:38:47;95920.22;;;4.17;100.00
83308;BME280;73223;48.584;13.460;2024-01-07T02:41:12;95924.97;;;4.36;100.00
83308;BME280;73223;48.584;13.460;2024-01-07T02:43:38;95928.38;;;4.36;100.00
83308;BME280;73223;48.584;13.460;2024-01-07T02:46:03;95935.25;;;4.36;100.00
83308;BME280;73223;48.584;13.460;2024-01-07T02:48:29;95932.19;;;4.59;100.00
83308;BME280;73223;48.584;13.460;2024-01-07T02:50:55;95922.84;;;4.56;100.00
83308;BME280;73223;48.584;13.460;2024-01-07T02:53:20;95927.94;;;4.58;100.00
83308;BME280;73223;48.584;13.460;2024-01-07T02:55:45;95930.22;;;4.70;100.00
83308;BME280;73223;48.584;13.460;2024-01-07T02:58:11;95927.84;;;4.62;100.00
83308;BME280;73223;48.584;13.460;2024-01-07T03:00:36;95922.44;;;4.73;100.00
83308;BME280;73223;48.584;13.460;2024-01-07T03:03:01;95931.53;;;4.87;100.00
83308;BME280;73223;48.584;13.460;2024-01-07T03:05:26;95924.94;;;4.77;100.00
83308;BME280;73223;48.584;13.460;2024-01-07T03:07:54;95928.38;;;4.38;100.00
83308;BME280;73223;48.584;13.460;2024-01-07T03:10:19;95928.63;;;4.66;100.00
83308;BME280;73223;48.584;13.460;2024-01-07T03:12:45;95934.47;;;4.71;100.00
83308;BME280;73223;48.584;13.460;2024-01-07T03:15:10;95931.50;;;4.89;100.00
83308;BME280;73223;48.584;13.460;2024-01-07T03:17:35;95939.19;;;4.89;100.00
83308;BME280;73223;48.584;13.460;2024-01-07T03:20:01;95938.41;;;4.85;100.00
83308;BME280;73223;48.584;13.460;2024-01-07T03:22:26;95939.22;;;4.87;100.00
83308;BME280;73223;48.584;13.460;2024-01-07T03:24:51;95940.91;;;4.88;100.00
83308;BME280;73223;48.584;13.460;2024-01-07T03:27:17;95944.44;;;4.84;100.00
83308;BME280;73223;48.584;13.460;2024-01-07T03:29:42;95939.28;;;4.84;100.00
83308;BME280;73223;48.584;13.460;2024-01-07T03:32:07;95942.03;;;4.78;100.00
83308;BME280;73223;48.584;13.460;2024-01-07T03:34:32;95935.22;;;4.76;100.00
83308;BME280;73223;48.584;13.460;2024-01-07T03:36:58;95935.25;;;4.74;100.00
83308;BME280;73223;48.584;13.460;2024-01-07T03:39:23;95942.00;;;4.80;100.00
83308;BME280;73223;48.584;13.460;2024-01-07T03:41:48;95949.53;;;4.06;100.00
83308;BME280;73223;48.584;13.460;2024-01-07T03:44:13;95943.03;;;4.71;100.00
83308;BME280;73223;48.584;13.460;2024-01-07T03:46:39;95939.69;;;4.66;100.00
83308;BME280;73223;48.584;13.460;2024-01-07T03:49:05;95954.88;;;4.37;100.00
83308;BME280;73223;48.584;13.460;2024-01-07T03:51:31;95951.38;;;4.42;100.00
83308;BME280;73223;48.584;13.460;2024-01-07T03:53:56;95945.50;;;4.76;100.00
83308;BME280;73223;48.584;13.460;2024-01-07T03:56:21;95953.22;;;4.74;100.00
83308;BME280;73223;48.584;13.460;2024-01-07T03:58:46;95950.56;;;4.39;100.00
83308;BME280;73223;48.584;13.460;2024-01-07T04:01:16;95958.28;;;4.39;100.00
83308;BME280;73223;48.584;13.460;2024-01-07T04:03:41;95954.81;;;4.41;100.00
83308;BME280;73223;48.584;13.460;2024-01-07T04:06:07;95956.00;;;4.65;100.00
83308;BME280;73223;48.584;13.460;2024-01-07T04:08:33;95955.88;;;4.70;100.00
83308;BME280;73223;48.584;13.460;2024-01-07T04:10:58;95954.16;;;4.70;100.00
83308;BME280;73223;48.584;13.460;2024-01-07T04:13:23;95949.88;;;4.71;100.00
83308;BME280;73223;48.584;13.460;2024-01-07T04:15:48;95958.31;;;4.76;100.00
83308;BME280;73223;48.584;13.460;2024-01-07T04:18:14;95957.59;;;4.69;100.00
83308;BME280;73223;48.584;13.460;2024-01-07T04:20:39;95959.25;;;4.72;100.00
83308;BME280;73223;48.584;13.460;2024-01-07T04:23:04;95970.44;;;4.69;100.00
83308;BME280;73223;48.584;13.460;2024-01-07T04:25:29;95959.69;;;4.52;100.00
83308;BME280;73223;48.584;13.460;2024-01-07T04:27:55;95968.16;;;4.15;100.00
83308;BME280;73223;48.584;13.460;2024-01-07T04:30:20;95983.34;;;4.26;100.00
83308;BME280;73223;48.584;13.460;2024-01-07T04:32:45;95978.34;;;4.18;100.00
83308;BME280;73223;48.584;13.460;2024-01-07T04:35:10;95981.81;;;4.16;100.00
83308;BME280;73223;48.584;13.460;2024-01-07T04:37:37;95978.34;;;4.18;100.00
83308;BME280;73223;48.584;13.460;2024-01-07T04:40:03;95986.97;;;4.14;100.00
83308;BME280;73223;48.584;13.460;2024-01-07T04:42:28;95990.22;;;4.24;100.00
83308;BME280;73223;48.584;13.460;2024-01-07T04:44:53;95981.44;;;4.34;100.00
83308;BME280;73223;48.584;13.460;2024-01-07T04:47:29;95996.41;;;4.12;100.00
83308;BME280;73223;48.584;13.460;2024-01-07T04:49:55;95991.81;;;4.30;100.00
83308;BME280;73223;48.584;13.460;2024-01-07T04:52:24;95988.72;;;4.12;100.00
83308;BME280;73223;48.584;13.460;2024-01-07T04:54:54;96006.63;;;4.15;100.00
83308;BME280;73223;48.584;13.460;2024-01-07T04:57:19;95998.88;;;4.18;100.00
83308;BME280;73223;48.584;13.460;2024-01-07T04:59:46;96004.69;;;4.28;100.00
83308;BME280;73223;48.584;13.460;2024-01-07T05:02:11;96004.44;;;4.39;100.00
83308;BME280;73223;48.584;13.460;2024-01-07T05:04:37;96005.72;;;4.18;100.00
83308;BME280;73223;48.584;13.460;2024-01-07T05:07:03;96010.13;;;4.11;100.00
83308;BME280;73223;48.584;13.460;2024-01-07T05:09:28;96005.78;;;4.13;100.00
83308;BME280;73223;48.584;13.460;2024-01-07T05:11:53;96018.19;;;4.36;100.00
83308;BME280;73223;48.584;13.460;2024-01-07T05:14:19;96012.69;;;4.11;100.00
83308;BME280;73223;48.584;13.460;2024-01-07T05:16:44;96014.97;;;4.27;100.00
83308;BME280;73223;48.584;13.460;2024-01-07T05:19:09;96013.56;;;4.12;100.00
83308;BME280;73223;48.584;13.460;2024-01-07T05:21:34;96012.50;;;4.21;100.00
83308;BME280;73223;48.584;13.460;2024-01-07T05:24:00;96014.22;;;4.20;100.00
83308;BME280;73223;48.584;13.460;2024-01-07T05:26:25;96021.09;;;4.18;100.00
83308;BME280;73223;48.584;13.460;2024-01-07T05:28:50;96013.44;;;4.16;100.00
83308;BME280;73223;48.584;13.460;2024-01-07T05:31:16;96024.28;;;4.31;100.00
83308;BME280;73223;48.584;13.460;2024-01-07T05:33:45;96016.16;;;4.52;100.00
83308;BME280;73223;48.584;13.460;2024-01-07T05:36:13;96022.78;;;4.21;100.00
83308;BME280;73223;48.584;13.460;2024-01-07T05:38:41;96018.56;;;4.60;100.00
83308;BME280;73223;48.584;13.460;2024-01-07T05:41:06;96016.00;;;4.60;100.00
83308;BME280;73223;48.584;13.460;2024-01-07T05:43:32;96014.47;;;4.51;100.00
83308;BME280;73223;48.584;13.460;2024-01-07T05:45:57;96017.72;;;4.59;100.00
83308;BME280;73223;48.584;13.460;2024-01-07T05:48:22;96011.63;;;4.65;100.00
83308;BME280;73223;48.584;13.460;2024-01-07T05:50:48;96021.75;;;4.71;100.00
83308;BME280;73223;48.584;13.460;2024-01-07T05:53:14;96016.28;;;4.47;100.00
83308;BME280;73223;48.584;13.460;2024-01-07T05:55:39;96022.84;;;4.61;100.00
83308;BME280;73223;48.584;13.460;2024-01-07T05:58:04;96024.06;;;4.43;100.00
83308;BME280;73223;48.584;13.460;2024-01-07T06:00:30;96028.94;;;4.53;100.00
83308;BME280;73223;48.584;13.460;2024-01-07T06:02:55;96031.75;;;4.43;100.00
83308;BME280;73223;48.584;13.460;2024-01-07T06:05:20;96023.19;;;4.44;100.00
83308;BME280;73223;48.584;13.460;2024-01-07T06:07:45;96029.25;;;4.38;100.00
83308;BME280;73223;48.584;13.460;2024-01-07T06:10:11;96036.19;;;3.89;100.00
83308;BME280;73223;48.584;13.460;2024-01-07T06:12:36;96042.41;;;4.22;100.00
83308;BME280;73223;48.584;13.460;2024-01-07T06:15:01;96035.25;;;4.39;100.00
83308;BME280;73223;48.584;13.460;2024-01-07T06:17:26;96042.72;;;4.49;100.00
83308;BME280;73223;48.584;13.460;2024-01-07T06:19:52;96036.97;;;4.38;100.00
83308;BME280;73223;48.584;13.460;2024-01-07T06:22:17;96041.13;;;4.44;100.00
83308;BME280;73223;48.584;13.460;2024-01-07T06:24:42;96050.78;;;4.31;100.00
83308;BME280;73223;48.584;13.460;2024-01-07T06:27:08;96053.34;;;4.31;100.00
83308;BME280;73223;48.584;13.460;2024-01-07T06:29:33;96051.31;;;4.02;100.00
83308;BME280;73223;48.584;13.460;2024-01-07T06:31:59;96055.91;;;4.31;100.00
83308;BME280;73223;48.584;13.460;2024-01-07T06:34:24;96060.44;;;4.17;100.00
83308;BME280;73223;48.584;13.460;2024-01-07T06:36:49;96059.91;;;4.46;100.00
83308;BME280;73223;48.584;13.460;2024-01-07T06:39:14;96072.09;;;4.35;100.00
83308;BME280;73223;48.584;13.460;2024-01-07T06:41:40;96063.81;;;4.21;100.00
83308;BME280;73223;48.584;13.460;2024-01-07T06:44:05;96072.75;;;4.46;100.00
83308;BME280;73223;48.584;13.460;2024-01-07T06:46:30;96071.03;;;4.46;100.00
83308;BME280;73223;48.584;13.460;2024-01-07T06:48:56;96078.09;;;4.34;100.00
83308;BME280;73223;48.584;13.460;2024-01-07T06:51:21;96084.31;;;4.21;100.00
83308;BME280;73223;48.584;13.460;2024-01-07T06:53:46;96084.06;;;4.34;100.00
83308;BME280;73223;48.584;13.460;2024-01-07T06:56:13;96083.81;;;5.67;100.00
83308;BME280;73223;48.584;13.460;2024-01-07T06:58:38;96088.06;;;6.37;100.00
83308;BME280;73223;48.584;13.460;2024-01-07T07:01:06;96093.44;;;6.91;100.00
83308;BME280;73223;48.584;13.460;2024-01-07T07:03:32;96087.88;;;6.76;100.00
83308;BME280;73223;48.584;13.460;2024-01-07T07:05:57;96090.16;;;6.23;100.00
83308;BME280;73223;48.584;13.460;2024-01-07T07:08:22;96098.69;;;5.54;100.00
83308;BME280;73223;48.584;13.460;2024-01-07T07:10:47;96103.06;;;5.12;100.00
83308;BME280;73223;48.584;13.460;2024-01-07T07:13:13;96099.81;;;5.02;100.00
83308;BME280;73223;48.584;13.460;2024-01-07T07:15:39;96110.59;;;4.78;100.00
83308;BME280;73223;48.584;13.460;2024-01-07T07:18:04;96110.03;;;4.64;100.00
83308;BME280;73223;48.584;13.460;2024-01-07T07:20:30;96114.84;;;3.85;100.00
83308;BME280;73223;48.584;13.460;2024-01-07T07:22:55;96124.81;;;4.49;100.00
83308;BME280;73223;48.584;13.460;2024-01-07T07:25:20;96123.44;;;4.32;100.00
83308;BME280;73223;48.584;13.460;2024-01-07T07:27:45;96126.88;;;4.31;100.00
83308;BME280;73223;48.584;13.460;2024-01-07T07:30:11;96131.50;;;4.12;100.00
83308;BME280;73223;48.584;13.460;2024-01-07T07:32:39;96134.88;;;4.14;100.00
83308;BME280;73223;48.584;13.460;2024-01-07T07:35:04;96142.88;;;3.96;100.00
83308;BME280;73223;48.584;13.460;2024-01-07T07:37:29;96148.06;;;3.93;100.00
83308;BME280;73223;48.584;13.460;2024-01-07T07:39:55;96157.09;;;3.61;100.00
83308;BME280;73223;48.584;13.460;2024-01-07T07:42:20;96151.72;;;3.76;100.00
83308;BME280;73223;48.584;13.460;2024-01-07T07:44:45;96160.72;;;3.46;100.00
83308;BME280;73223;48.584;13.460;2024-01-07T07:47:10;96155.38;;;3.62;100.00
83308;BME280;73223;48.584;13.460;2024-01-07T07:49:37;96166.75;;;3.42;100.00
83308;BME280;73223;48.584;13.460;2024-01-07T07:52:05;96166.88;;;3.35;100.00
83308;BME280;73223;48.584;13.460;2024-01-07T07:54:30;96164.13;;;3.47;100.00
83308;BME280;73223;48.584;13.460;2024-01-07T07:56:56;96169.78;;;3.70;100.00
83308;BME280;73223;48.584;13.460;2024-01-07T07:59:21;96175.81;;;3.65;100.00
83308;BME280;73223;48.584;13.460;2024-01-07T08:01:46;96180.31;;;3.49;100.00
83308;BME280;73223;48.584;13.460;2024-01-07T08:04:12;96178.16;;;3.20;100.00
83308;BME280;73223;48.584;13.460;2024-01-07T08:06:37;96180.25;;;3.55;100.00
83308;BME280;73223;48.584;13.460;2024-01-07T08:09:02;96182.84;;;3.52;100.00
83308;BME280;73223;48.584;13.460;2024-01-07T08:11:27;96184.91;;;3.24;100.00
83308;BME280;73223;48.584;13.460;2024-01-07T08:13:54;96195.66;;;3.52;100.00
83308;BME280;73223;48.584;13.460;2024-01-07T08:16:19;96194.84;;;3.48;100.00
83308;BME280;73223;48.584;13.460;2024-01-07T08:18:45;96203.91;;;3.08;100.00
83308;BME280;73223;48.584;13.460;2024-01-07T08:21:11;96201.56;;;3.57;100.00
83308;BME280;73223;48.584;13.460;2024-01-07T08:23:37;96204.66;;;3.18;100.00
83308;BME280;73223;48.584;13.460;2024-01-07T08:26:02;96213.78;;;3.38;100.00
83308;BME280;73223;48.584;13.460;2024-01-07T08:28:27;96205.97;;;3.47;100.00
83308;BME280;73223;48.584;13.460;2024-01-07T08:30:53;96211.16;;;3.41;100.00
83308;BME280;73223;48.584;13.460;2024-01-07T08:33:18;96217.03;;;3.51;100.00
83308;BME280;73223;48.584;13.460;2024-01-07T08:35:44;96217.06;;;3.46;100.00
83308;BME280;73223;48.584;13.460;2024-01-07T08:38:09;96223.00;;;3.52;100.00
83308;BME280;73223;48.584;13.460;2024-01-07T08:40:34;96227.97;;;3.61;100.00
83308;BME280;73223;48.584;13.460;2024-01-07T08:43:00;96227.94;;;3.65;100.00
83308;BME280;73223;48.584;13.460;2024-01-07T08:45:25;96230.88;;;3.38;100.00
83308;BME280;73223;48.584;13.460;2024-01-07T08:47:50;96239.31;;;3.43;100.00
83308;BME280;73223;48.584;13.460;2024-01-07T08:50:15;96244.66;;;3.26;100.00
83308;BME280;73223;48.584;13.460;2024-01-07T08:52:41;96250.94;;;2.99;100.00
83308;BME280;73223;48.584;13.460;2024-01-07T08:55:06;96256.09;;;2.98;100.00
83308;BME280;73223;48.584;13.460;2024-01-07T08:57:35;96258.53;;;3.05;100.00
83308;BME280;73223;48.584;13.460;2024-01-07T09:00:00;96255.84;;;3.21;100.00
83308;BME280;73223;48.584;13.460;2024-01-07T09:02:25;96260.66;;;3.45;100.00
83308;BME280;73223;48.584;13.460;2024-01-07T09:04:51;96261.59;;;3.39;100.00
83308;BME280;73223;48.584;13.460;2024-01-07T09:07:17;96259.94;;;3.34;100.00
83308;BME280;73223;48.584;13.460;2024-01-07T09:09:44;96268.84;;;3.04;100.00
83308;BME280;73223;48.584;13.460;2024-01-07T09:12:09;96263.34;;;3.36;100.00
83308;BME280;73223;48.584;13.460;2024-01-07T09:14:37;96275.13;;;3.49;100.00
83308;BME280;73223;48.584;13.460;2024-01-07T09:17:02;96271.78;;;3.41;100.00
83308;BME280;73223;48.584;13.460;2024-01-07T09:19:27;96280.91;;;3.63;100.00
83308;BME280;73223;48.584;13.460;2024-01-07T09:21:53;96280.19;;;3.54;100.00
83308;BME280;73223;48.584;13.460;2024-01-07T09:24:18;96278.59;;;3.43;100.00
83308;BME280;73223;48.584;13.460;2024-01-07T09:26:43;96284.34;;;3.62;100.00
83308;BME280;73223;48.584;13.460;2024-01-07T09:29:09;96292.22;;;3.47;100.00
83308;BME280;73223;48.584;13.460;2024-01-07T09:31:35;96290.19;;;3.01;100.00
83308;BME280;73223;48.584;13.460;2024-01-07T09:34:01;96285.34;;;3.51;100.00
83308;BME280;73223;48.584;13.460;2024-01-07T09:36:27;96286.41;;;3.33;100.00
83308;BME280;73223;48.584;13.460;2024-01-07T09:38:52;96289.47;;;3.62;100.00
83308;BME280;73223;48.584;13.460;2024-01-07T09:41:19;96292.84;;;3.66;100.00
83308;BME280;73223;48.584;13.460;2024-01-07T09:43:44;96288.16;;;3.31;100.00
83308;BME280;73223;48.584;13.460;2024-01-07T09:46:10;96292.28;;;3.42;100.00
83308;BME280;73223;48.584;13.460;2024-01-07T09:48:35;96286.09;;;2.85;100.00
83308;BME280;73223;48.584;13.460;2024-01-07T09:51:01;96286.56;;;3.22;100.00
83308;BME280;73223;48.584;13.460;2024-01-07T09:53:30;96300.25;;;3.17;100.00
83308;BME280;73223;48.584;13.460;2024-01-07T09:58:27;96297.50;;;3.33;100.00
83308;BME280;73223;48.584;13.460;2024-01-07T10:00:54;96303.66;;;3.17;100.00
83308;BME280;73223;48.584;13.460;2024-01-07T10:03:19;96301.84;;;3.28;100.00
83308;BME280;73223;48.584;13.460;2024-01-07T10:05:45;96303.38;;;3.43;100.00
83308;BME280;73223;48.584;13.460;2024-01-07T10:08:10;96302.44;;;3.48;100.00
83308;BME280;73223;48.584;13.460;2024-01-07T10:10:35;96308.59;;;3.37;100.00
83308;BME280;73223;48.584;13.460;2024-01-07T10:13:01;96314.63;;;3.28;100.00
83308;BME280;73223;48.584;13.460;2024-01-07T10:15:27;96310.50;;;3.18;100.00
83308;BME280;73223;48.584;13.460;2024-01-07T10:17:55;96312.06;;;3.31;100.00
83308;BME280;73223;48.584;13.460;2024-01-07T10:20:28;96314.59;;;3.31;100.00
83308;BME280;73223;48.584;13.460;2024-01-07T10:22:53;96318.94;;;3.23;100.00
83308;BME280;73223;48.584;13.460;2024-01-07T10:25:19;96316.13;;;3.47;100.00
83308;BME280;73223;48.584;13.460;2024-01-07T10:27:44;96306.69;;;3.53;100.00
83308;BME280;73223;48.584;13.460;2024-01-07T10:30:10;96307.56;;;3.48;100.00
83308;BME280;73223;48.584;13.460;2024-01-07T10:32:36;96311.66;;;3.63;100.00
83308;BME280;73223;48.584;13.460;2024-01-07T10:35:05;96321.41;;;3.35;100.00
83308;BME280;73223;48.584;13.460;2024-01-07T10:37:31;96320.72;;;3.20;100.00
83308;BME280;73223;48.584;13.460;2024-01-07T10:39:58;96323.19;;;3.26;100.00
83308;BME280;73223;48.584;13.460;2024-01-07T10:42:30;96319.00;;;3.20;100.00
83308;BME280;73223;48.584;13.460;2024-01-07T10:44:56;96324.00;;;3.32;100.00
83308;BME280;73223;48.584;13.460;2024-01-07T10:47:22;96331.75;;;3.25;100.00
83308;BME280;73223;48.584;13.460;2024-01-07T10:49:50;96330.03;;;3.25;100.00
83308;BME280;73223;48.584;13.460;2024-01-07T10:52:16;96324.91;;;3.25;100.00
83308;BME280;73223;48.584;13.460;2024-01-07T10:54:42;96327.59;;;3.13;100.00
83308;BME280;73223;48.584;13.460;2024-01-07T10:59:45;96323.88;;;3.41;100.00
83308;BME280;73223;48.584;13.460;2024-01-07T11:02:11;96329.16;;;3.26;100.00
83308;BME280;73223;48.584;13.460;2024-01-07T11:05:00;96328.31;;;3.27;100.00
83308;BME280;73223;48.584;13.460;2024-01-07T11:07:40;96328.41;;;3.18;100.00
83308;BME280;73223;48.584;13.460;2024-01-07T11:10:27;96326.78;;;3.11;100.00
83308;BME280;73223;48.584;13.460;2024-01-07T11:12:56;96333.03;;;2.83;100.00
83308;BME280;73223;48.584;13.460;2024-01-07T11:18:17;96341.00;;;3.39;100.00
83308;BME280;73223;48.584;13.460;2024-01-07T11:20:44;96340.16;;;3.39;100.00
83308;BME280;73223;48.584;13.460;2024-01-07T11:23:30;96346.94;;;3.41;100.00
83308;BME280;73223;48.584;13.460;2024-01-07T11:25:58;96339.69;;;3.02;100.00
83308;BME280;73223;48.584;13.460;2024-01-07T11:28:42;96347.75;;;3.43;100.00
83308;BME280;73223;48.584;13.460;2024-01-07T11:31:07;96349.78;;;3.17;100.00
83308;BME280;73223;48.584;13.460;2024-01-07T11:33:36;96353.94;;;3.26;100.00
83308;BME280;73223;48.584;13.460;2024-01-07T11:36:02;96355.47;;;3.42;100.00
83308;BME280;73223;48.584;13.460;2024-01-07T11:38:29;96352.88;;;3.45;100.00
83308;BME280;73223;48.584;13.460;2024-01-07T11:40:56;96355.47;;;3.42;100.00
83308;BME280;73223;48.584;13.460;2024-01-07T11:43:21;96356.41;;;3.35;100.00
83308;BME280;73223;48.584;13.460;2024-01-07T11:45:49;96354.75;;;3.31;100.00
83308;BME280;73223;48.584;13.460;2024-01-07T11:48:15;96350.59;;;3.19;100.00
83308;BME280;73223;48.584;13.460;2024-01-07T11:50:41;96360.03;;;3.12;100.00
83308;BME280;73223;48.584;13.460;2024-01-07T11:53:07;96361.63;;;3.26;100.00
83308;BME280;73223;48.584;13.460;2024-01-07T11:55:33;96358.97;;;3.36;100.00
83308;BME280;73223;48.584;13.460;2024-01-07T11:58:03;96366.91;;;3.10;100.00
83308;BME280;73223;48.584;13.460;2024-01-07T12:00:32;96364.59;;;2.85;100.00
83308;BME280;73223;48.584;13.460;2024-01-07T12:02:59;96372.13;;;3.00;100.00
83308;BME280;73223;48.584;13.460;2024-01-07T12:05:25;96364.59;;;2.85;100.00
83308;BME280;73223;48.584;13.460;2024-01-07T12:07:50;96365.19;;;3.08;100.00
83308;BME280;73223;48.584;13.460;2024-01-07T12:10:15;96371.19;;;3.05;100.00
83308;BME280;73223;48.584;13.460;2024-01-07T12:12:42;96374.66;;;3.03;100.00
83308;BME280;73223;48.584;13.460;2024-01-07T12:15:09;96371.09;;;3.19;100.00
83308;BME280;73223;48.584;13.460;2024-01-07T12:17:34;96372.19;;;2.92;100.00
83308;BME280;73223;48.584;13.460;2024-01-07T12:20:03;96372.81;;;3.19;100.00
83308;BME280;73223;48.584;13.460;2024-01-07T12:22:30;96376.31;;;3.07;100.00
83308;BME280;73223;48.584;13.460;2024-01-07T12:25:02;96380.00;;;2.74;100.00
83308;BME280;73223;48.584;13.460;2024-01-07T12:27:28;96377.47;;;2.71;100.00
83308;BME280;73223;48.584;13.460;2024-01-07T12:29:55;96375.69;;;2.82;100.00
83308;BME280;73223;48.584;13.460;2024-01-07T12:32:21;96379.88;;;2.88;100.00
83308;BME280;73223;48.584;13.460;2024-01-07T12:34:48;96385.22;;;2.62;100.00
83308;BME280;73223;48.584;13.460;2024-01-07T12:37:13;96386.13;;;2.52;100.00
83308;BME280;73223;48.584;13.460;2024-01-07T12:39:40;96385.38;;;2.39;100.00
83308;BME280;73223;48.584;13.460;2024-01-07T12:42:05;96385.34;;;2.42;100.00
83308;BME280;73223;48.584;13.460;2024-01-07T12:44:32;96397.19;;;2.60;100.00
83308;BME280;73223;48.584;13.460;2024-01-07T12:46:57;96386.19;;;2.46;100.00
83308;BME280;73223;48.584;13.460;2024-01-07T12:49:23;96383.84;;;2.12;100.00
83308;BME280;73223;48.584;13.460;2024-01-07T12:51:48;96400.78;;;2.33;100.00